Close sub menu
NASDAQ
NY-Nasdaq Composite 25806,196 -- -- (23:16)
Stijgers 1 dag
Dalers 1 dag
Indices 1 dag
AEX* 1.015,65-0,4%
Midkap* 1.049,82-0,4%
AMS Next 20®* 1.664,980,0%
FTSE100 10.259,59-0,2%
Dow Jones 49.596,97--
NASDAQ 25.806,196--
S&P500 7.337,11--
S&P Future 7.399,75+0,5%
BEL20** 5.469,75-1,5%
CAC 40** 8.202,08-1,2%
DAX 24.456,93-0,8%
* real time    ** slotkoers
NaamKoersVorige+/- %1 wk1 mndDit jaar 1 jaarTijd
Adobe 256,51 256,51 -- +4,2% +6,8% -26,7% -33,4% 22:00
Advanced Micro Devices 408,25 408,46 -- +15,2% +84,3% +90,6% +306,8% 22:00
Airbnb 140,46 140,46 -- +0,1% +12,4% +3,5% +14,1% 22:00
Align Technology 168,32 168,39 -- -4,4% +0,9% +7,8% -2,3% 22:00
Alphabet 395,30 395,30 -- +3,5% +30,1% +26,0% +158,7% 22:00
Alphabet 397,94 397,99 -- +3,4% +30,3% +27,1% +162,9% 22:00
Amazon.com 271,17 271,17 -- +2,3% +26,9% +17,5% +43,7% 22:00
American Electric Power Company 131,75 131,76 -- -3,9% -0,9% +14,3% +22,6% 22:00
Amgen 329,06 329,09 -- -5,0% -3,2% +0,5% +19,3% 22:00
Analog Devices 408,65 408,52 -- +1,6% +24,8% +50,7% +104,5% 22:00
Ansys 374,30 374,30 -- -- -4,7% +11,0% +15,2% 22:00
Apple 287,42 287,44 -- +5,9% +13,4% +5,7% +46,5% 22:00
Applied Materials 410,52 410,64 -- +4,1% +15,9% +59,7% +163,5% 22:00
ASML Holding NV 1.516,60 1.516,60 -- +5,4% +16,1% +41,8% +116,5% 22:00
AstraZeneca PLC 194,94 194,94 -- -- +0,3% +112,1% +200,4% 00:00
Atlassian Corp 92,37 92,37 -- +34,7% +42,5% -43,0% -55,1% 22:00
Autodesk 251,10 251,04 -- +5,9% +6,9% -15,2% -11,4% 22:00
Automatic Data Processing 214,09 214,09 -- +1,0% +5,1% -16,8% -29,8% 22:00
Baker Hughes Company 63,53 63,53 -- -8,8% +3,7% +39,5% +75,0% 22:00
Biogen 191,50 191,38 -- +1,2% +9,0% +8,8% +63,4% 22:00
Booking Holdings Inc. 171,28 171,28 -- +1,7% -1,2% -20,0% -17,6% 22:00
Broadcom Inc. 412,56 412,56 -- -1,2% +23,5% +19,2% +101,4% 22:00
Cadence Design Systems 356,90 356,90 -- +8,3% +27,7% +14,2% +15,7% 22:00
Charter Communications 160,24 160,24 -- -3,0% -28,4% -23,2% -60,4% 22:00
Cintas Corp 170,04 170,04 -- -2,7% -0,1% -9,6% -21,0% 22:00
Cisco Systems 92,17 92,16 -- +0,7% +14,2% +19,7% +54,7% 22:00
Cognizant Technology Solutions Corp 51,93 51,94 -- -1,8% -15,5% -37,4% -33,4% 22:00
Comcast Corp 26,23 26,24 -- -3,0% -5,6% -12,2% -23,7% 22:00
Constellation Energy Corp 311,30 311,28 -- -0,5% +14,2% -11,9% +16,1% 22:00
Copart 33,87 33,88 -- +2,3% +2,3% -13,5% -44,7% 22:00
CoStar Group 34,98 34,98 -- +1,1% -11,4% -48,0% -53,6% 22:00
Costco Wholesale Corp 1.012,06 1.012,06 -- -0,2% -0,1% +17,4% +0,5% 22:00
CrowdStrike Holdings 505,74 505,72 -- +13,5% +19,5% +7,9% +19,7% 22:00
CSX Corp 44,46 44,46 -- -2,1% +7,3% +22,6% +56,7% 22:00
Datadog 188,79 188,73 -- +42,8% +62,0% +38,8% +78,1% 22:00
DexCom 60,92 60,91 -- +2,3% -3,5% -8,2% -26,9% 22:00
Diamondback Energy 190,44 190,45 -- -7,4% -2,6% +26,7% +47,0% 22:00
Dollar Tree 96,76 96,76 -- -0,4% -9,1% -21,3% +14,6% 22:00
eBay 106,38 106,42 -- +2,8% +10,8% +22,1% +52,5% 22:00
Electronic Arts 200,86 200,85 -- -0,7% -1,5% -1,7% +29,2% 22:00
Enphase Energy 35,46 35,47 -- +7,6% +10,7% +10,6% -18,9% 22:00
Exelon Corp 44,41 44,41 -- -3,4% -9,5% +1,9% -4,2% 22:00
Fastenal Co 44,36 44,36 -- -1,3% -2,8% +10,5% +13,0% 22:00
Fortinet 107,97 107,97 -- +28,1% +29,0% +36,0% +1,2% 22:00
Gilead Sciences 134,24 134,06 -- +2,6% -3,3% +9,4% +35,7% 22:00
GlobalFoundries 70,88 70,93 -- +9,7% +61,3% +103,0% +100,9% 22:00
Honeywell International 216,10 216,07 -- +0,8% -3,5% +10,8% +0,7% 22:00
IDEXX Laboratories 572,60 572,20 -- +2,1% -0,4% -15,4% +17,7% 22:00
Illumina 138,68 138,71 -- +9,4% +9,7% +5,7% +81,6% 22:00
Intel Corp 109,61 109,62 -- +16,0% +107,2% +197,0% +439,7% 22:00
Intuit 406,78 406,78 -- +4,7% -0,8% -38,6% -36,6% 22:00
Intuitive Surgical 453,34 453,49 -- -0,9% +0,1% -20,0% -15,4% 22:00
JD.com 30,21 30,21 -- -0,4% +6,1% +5,3% -10,7% 22:00
Keurig Dr Pepper 28,53 28,52 -- -3,0% +12,0% +1,9% -16,2% 22:00
KLA Corp 1.763,25 1.763,25 -- +0,7% +13,8% +45,1% +153,9% 22:00
Kraft Heinz Company (The) 23,66 23,64 -- +4,4% +2,1% -2,4% -16,2% 22:00
Lam Research Corp 286,41 286,52 -- +11,1% +27,7% +67,3% +281,6% 22:00
Lucid Group Inc 6,05 6,05 -- -5,0% -31,5% -42,8% -73,1% 22:00
lululemon athletica 133,61 133,59 -- -3,0% -13,1% -35,7% -51,5% 22:00
Marriott International 351,85 352,05 -- -2,7% +6,3% +13,4% +37,4% 22:00
Marvell Technology 160,02 160,01 -- -3,1% +46,3% +88,3% +184,2% 22:00
MercadoLibre 1.870,01 1.870,01 -- +4,3% +7,3% -7,2% -17,3% 22:00
Meta Platforms 616,91 616,81 -- +0,8% +7,3% -6,5% +3,4% 22:00
Microchip Technology 101,58 101,58 -- +9,3% +50,5% +59,4% +111,3% 22:00
Micron Technology Inc 646,47 646,63 -- +25,0% +71,2% +126,5% +682,5% 22:00
Microsoft Corp 420,92 420,77 -- +3,2% +13,1% -13,0% -2,9% 22:00
Moderna 48,56 48,54 -- +5,7% -3,1% +64,7% +101,8% 22:00
Mondelez International 61,31 61,31 -- -0,2% +6,6% +13,9% -8,7% 22:00
Monster Beverage Corp 75,98 75,97 -- -1,4% +4,9% -0,9% +25,5% 22:00
Netflix Inc. 88,26 88,25 -- -5,7% -10,7% -5,9% -23,6% 22:00
NVIDIA Corp 211,50 211,50 -- +6,0% +18,8% +13,4% +80,7% 22:00
NXP Semiconductors NV 290,35 290,22 -- -1,1% +48,8% +33,8% +55,4% 22:00
Old Dominion Freight Line 198,08 198,06 -- -6,8% -0,4% +26,3% +27,3% 22:00
O'Reilly Automotive Inc 94,56 94,58 -- -4,9% +3,5% +3,7% +2,9% 22:00
PACCAR 114,04 114,05 -- -4,0% -3,5% +4,1% +28,5% 22:00
Palo Alto Networks Inc 196,51 196,53 -- +9,6% +15,7% +6,7% +4,4% 22:00
Paychex 94,26 94,26 -- +1,8% +2,9% -16,0% -37,3% 22:00
PayPal Holdings 46,22 46,22 -- -7,8% +3,0% -20,8% -32,7% 22:00
PDD Holdings 101,53 101,51 -- +1,7% +2,0% -10,5% -7,2% 22:00
Pepsico 156,26 156,29 -- -1,4% +2,0% +8,9% +18,5% 22:00
QUALCOMM 202,57 202,55 -- +12,8% +63,3% +18,4% +40,4% 22:00
Regeneron Pharmaceuticals 708,96 709,10 -- +0,3% -6,7% -8,2% +26,4% 22:00
Rivian Automotive 14,19 14,18 -- -13,5% -3,4% -28,0% +11,6% 22:00
Ross Stores 224,48 224,48 -- -1,5% +3,8% +24,6% +56,9% 22:00
Seagen 228,89 228,74 -- -- +7,2% +78,1% +78,3% 22:00
SiriusXM Holdings Inc 26,74 26,75 -- -0,7% +12,8% +33,7% +26,4% 22:00
Starbucks Corp 104,26 104,26 -- -1,0% +9,5% +23,8% +26,1% 22:00
Synopsys 505,22 505,19 -- +4,7% +27,0% +7,6% +5,1% 22:00
Tesla 411,81 411,79 -- +7,9% +18,8% -8,4% +49,1% 22:00
Texas Instruments 285,16 285,24 -- +1,5% +42,8% +64,4% +73,0% 22:00
T-Mobile US 194,20 194,20 -- -0,7% -3,2% -4,4% -22,7% 22:00
Verisk Analytics 174,71 174,69 -- -5,3% -3,5% -21,9% -43,6% 22:00
Vertex Pharmaceuticals 425,00 425,00 -- -0,6% -1,6% -6,3% -2,3% 22:00
Walgreens Boots Alliance 11,98 11,98 -- -- +0,5% +28,4% +40,6% 22:00
Warner Bros Discovery 27,12 27,12 -- +0,3% -0,9% -5,9% +216,8% 22:00
Workday 130,90 130,88 -- +6,9% +2,7% -39,1% -47,8% 22:00
Xcel Energy 80,43 80,43 -- -3,0% -0,1% +8,9% +12,7% 22:00
Zoom Communications Inc 108,36 108,36 -- +11,5% +29,0% +25,6% +37,8% 22:00
Zscaler 152,83 152,79 -- +16,9% +7,6% -32,1% -34,6% 22:00
Powered by

Schakel browser notificaties in

Schakel browser notificaties in om meldingen te ontvangen op dit apparaat.

Browser notificaties inschakelen

U heeft browser notificaties voor fd.nl eerder geweigerd. Ga naar browser instellingen en sta browser notificaties toe voor fd.nl. De precieze handelingen zijn afhankelijk van uw browser.

U volgt een onderwerp

Wanneer deze zoekterm in een artikel voorkomt, zult u deze terugvinden in Mijn nieuws onder ‘Eurobonds’.

Wilt u via de FD App meldingen ontvangen voor dit onderwerp?

Wilt u via de FD App meldingen ontvangen voor dit onderwerp?

Ons privacy statement is van toepassing.

Meldingen

Wanneer deze zoekterm in een artikel voorkomt, zult u deze terugvinden in Mijn nieuws onder ‘Eurobonds’.

Wilt u via de FD App meldingen ontvangen voor dit onderwerp?

Wilt u via de FD App meldingen ontvangen voor dit onderwerp?